sensor_id;sensor_type;location;lat;lon;timestamp;P1;durP1;ratioP1;P2;durP2;ratioP2
51732;SDS011;39139;53.144;6.244;2022-11-20T00:00:51;24.65;;;16.35;;
51732;SDS011;39139;53.144;6.244;2022-11-20T00:03:17;25.60;;;16.08;;
51732;SDS011;39139;53.144;6.244;2022-11-20T00:05:42;30.17;;;17.23;;
51732;SDS011;39139;53.144;6.244;2022-11-20T00:08:09;31.05;;;17.13;;
51732;SDS011;39139;53.144;6.244;2022-11-20T00:10:38;25.52;;;16.00;;
51732;SDS011;39139;53.144;6.244;2022-11-20T00:13:07;28.83;;;16.17;;
51732;SDS011;39139;53.144;6.244;2022-11-20T00:15:33;26.92;;;16.00;;
51732;SDS011;39139;53.144;6.244;2022-11-20T00:17:59;26.67;;;16.00;;
51732;SDS011;39139;53.144;6.244;2022-11-20T00:20:24;25.05;;;14.30;;
51732;SDS011;39139;53.144;6.244;2022-11-20T00:22:50;24.65;;;14.48;;
51732;SDS011;39139;53.144;6.244;2022-11-20T00:25:16;26.77;;;14.82;;
51732;SDS011;39139;53.144;6.244;2022-11-20T00:27:42;24.88;;;14.68;;
51732;SDS011;39139;53.144;6.244;2022-11-20T00:30:08;23.17;;;14.65;;
51732;SDS011;39139;53.144;6.244;2022-11-20T00:32:34;22.85;;;14.10;;
51732;SDS011;39139;53.144;6.244;2022-11-20T00:34:59;24.20;;;15.13;;
51732;SDS011;39139;53.144;6.244;2022-11-20T00:37:25;27.67;;;15.55;;
51732;SDS011;39139;53.144;6.244;2022-11-20T00:39:52;22.25;;;13.63;;
51732;SDS011;39139;53.144;6.244;2022-11-20T00:42:18;28.10;;;16.15;;
51732;SDS011;39139;53.144;6.244;2022-11-20T00:44:43;25.33;;;15.82;;
51732;SDS011;39139;53.144;6.244;2022-11-20T00:47:09;24.77;;;14.95;;
51732;SDS011;39139;53.144;6.244;2022-11-20T00:49:35;27.17;;;15.07;;
51732;SDS011;39139;53.144;6.244;2022-11-20T00:52:00;23.08;;;15.35;;
51732;SDS011;39139;53.144;6.244;2022-11-20T00:54:26;27.38;;;15.18;;
51732;SDS011;39139;53.144;6.244;2022-11-20T00:56:55;25.35;;;14.68;;
51732;SDS011;39139;53.144;6.244;2022-11-20T00:59:20;22.23;;;14.55;;
51732;SDS011;39139;53.144;6.244;2022-11-20T01:01:46;20.98;;;13.23;;
51732;SDS011;39139;53.144;6.244;2022-11-20T01:04:12;22.65;;;14.02;;
51732;SDS011;39139;53.144;6.244;2022-11-20T01:06:37;23.52;;;14.25;;
51732;SDS011;39139;53.144;6.244;2022-11-20T01:09:05;20.50;;;13.85;;
51732;SDS011;39139;53.144;6.244;2022-11-20T01:11:34;21.55;;;13.70;;
51732;SDS011;39139;53.144;6.244;2022-11-20T01:14:01;20.85;;;13.45;;
51732;SDS011;39139;53.144;6.244;2022-11-20T01:16:30;23.90;;;13.73;;
51732;SDS011;39139;53.144;6.244;2022-11-20T01:18:58;21.90;;;13.65;;
51732;SDS011;39139;53.144;6.244;2022-11-20T01:21:29;26.73;;;13.63;;
51732;SDS011;39139;53.144;6.244;2022-11-20T01:24:00;22.95;;;14.48;;
51732;SDS011;39139;53.144;6.244;2022-11-20T01:26:30;22.48;;;14.52;;
51732;SDS011;39139;53.144;6.244;2022-11-20T01:28:57;26.80;;;15.43;;
51732;SDS011;39139;53.144;6.244;2022-11-20T01:31:28;23.42;;;14.07;;
51732;SDS011;39139;53.144;6.244;2022-11-20T01:33:59;23.33;;;14.30;;
51732;SDS011;39139;53.144;6.244;2022-11-20T01:36:28;24.30;;;13.80;;
51732;SDS011;39139;53.144;6.244;2022-11-20T01:38:56;24.40;;;13.40;;
51732;SDS011;39139;53.144;6.244;2022-11-20T01:41:24;24.70;;;14.13;;
51732;SDS011;39139;53.144;6.244;2022-11-20T01:44:10;19.10;;;13.82;;
51732;SDS011;39139;53.144;6.244;2022-11-20T01:46:40;25.58;;;14.40;;
51732;SDS011;39139;53.144;6.244;2022-11-20T01:49:23;25.40;;;14.75;;
51732;SDS011;39139;53.144;6.244;2022-11-20T01:52:00;23.60;;;14.40;;
51732;SDS011;39139;53.144;6.244;2022-11-20T01:54:38;23.67;;;14.93;;
51732;SDS011;39139;53.144;6.244;2022-11-20T01:57:09;25.75;;;14.35;;
51732;SDS011;39139;53.144;6.244;2022-11-20T01:59:37;25.30;;;13.70;;
51732;SDS011;39139;53.144;6.244;2022-11-20T02:02:08;24.58;;;15.00;;
51732;SDS011;39139;53.144;6.244;2022-11-20T02:04:34;25.85;;;14.90;;
51732;SDS011;39139;53.144;6.244;2022-11-20T02:07:00;23.90;;;14.55;;
51732;SDS011;39139;53.144;6.244;2022-11-20T02:09:27;23.58;;;15.05;;
51732;SDS011;39139;53.144;6.244;2022-11-20T02:11:53;24.88;;;14.88;;
51732;SDS011;39139;53.144;6.244;2022-11-20T02:14:20;24.80;;;14.02;;
51732;SDS011;39139;53.144;6.244;2022-11-20T02:16:47;25.40;;;14.80;;
51732;SDS011;39139;53.144;6.244;2022-11-20T02:19:35;23.67;;;14.88;;
51732;SDS011;39139;53.144;6.244;2022-11-20T02:22:02;28.15;;;15.23;;
51732;SDS011;39139;53.144;6.244;2022-11-20T02:24:33;26.83;;;15.27;;
51732;SDS011;39139;53.144;6.244;2022-11-20T02:27:00;24.30;;;16.10;;
51732;SDS011;39139;53.144;6.244;2022-11-20T02:29:36;26.05;;;14.73;;
51732;SDS011;39139;53.144;6.244;2022-11-20T02:34:53;24.10;;;15.43;;
51732;SDS011;39139;53.144;6.244;2022-11-20T02:37:20;25.02;;;15.63;;
51732;SDS011;39139;53.144;6.244;2022-11-20T02:39:47;23.83;;;15.00;;
51732;SDS011;39139;53.144;6.244;2022-11-20T02:42:14;25.10;;;15.63;;
51732;SDS011;39139;53.144;6.244;2022-11-20T02:44:40;25.73;;;14.57;;
51732;SDS011;39139;53.144;6.244;2022-11-20T02:47:05;23.10;;;14.73;;
51732;SDS011;39139;53.144;6.244;2022-11-20T02:49:31;20.92;;;14.77;;
51732;SDS011;39139;53.144;6.244;2022-11-20T02:51:58;25.65;;;15.70;;
51732;SDS011;39139;53.144;6.244;2022-11-20T02:54:24;26.23;;;15.23;;
51732;SDS011;39139;53.144;6.244;2022-11-20T02:56:50;20.83;;;14.18;;
51732;SDS011;39139;53.144;6.244;2022-11-20T02:59:16;22.35;;;14.90;;
51732;SDS011;39139;53.144;6.244;2022-11-20T03:01:41;23.10;;;14.57;;
51732;SDS011;39139;53.144;6.244;2022-11-20T03:04:08;23.95;;;14.25;;
51732;SDS011;39139;53.144;6.244;2022-11-20T03:06:33;24.27;;;15.48;;
51732;SDS011;39139;53.144;6.244;2022-11-20T03:08:59;21.77;;;13.65;;
51732;SDS011;39139;53.144;6.244;2022-11-20T03:11:25;19.40;;;14.18;;
51732;SDS011;39139;53.144;6.244;2022-11-20T03:13:51;21.80;;;13.88;;
51732;SDS011;39139;53.144;6.244;2022-11-20T03:16:17;22.02;;;13.43;;
51732;SDS011;39139;53.144;6.244;2022-11-20T03:18:45;20.65;;;13.30;;
51732;SDS011;39139;53.144;6.244;2022-11-20T03:21:13;20.98;;;14.10;;
51732;SDS011;39139;53.144;6.244;2022-11-20T03:23:39;22.50;;;13.48;;
51732;SDS011;39139;53.144;6.244;2022-11-20T03:26:09;21.90;;;13.73;;
51732;SDS011;39139;53.144;6.244;2022-11-20T03:28:37;20.60;;;14.35;;
51732;SDS011;39139;53.144;6.244;2022-11-20T03:31:09;19.70;;;13.25;;
51732;SDS011;39139;53.144;6.244;2022-11-20T03:33:40;23.58;;;14.80;;
51732;SDS011;39139;53.144;6.244;2022-11-20T03:36:07;21.40;;;13.27;;
51732;SDS011;39139;53.144;6.244;2022-11-20T03:38:35;20.95;;;14.13;;
51732;SDS011;39139;53.144;6.244;2022-11-20T03:41:02;23.10;;;14.13;;
51732;SDS011;39139;53.144;6.244;2022-11-20T03:43:29;22.48;;;14.02;;
51732;SDS011;39139;53.144;6.244;2022-11-20T03:45:55;20.85;;;13.98;;
51732;SDS011;39139;53.144;6.244;2022-11-20T03:48:21;20.65;;;13.48;;
51732;SDS011;39139;53.144;6.244;2022-11-20T03:50:47;21.48;;;13.93;;
51732;SDS011;39139;53.144;6.244;2022-11-20T03:53:13;21.38;;;13.43;;
51732;SDS011;39139;53.144;6.244;2022-11-20T03:55:39;20.27;;;13.07;;
51732;SDS011;39139;53.144;6.244;2022-11-20T03:58:05;20.52;;;13.52;;
51732;SDS011;39139;53.144;6.244;2022-11-20T04:00:31;23.23;;;12.75;;
51732;SDS011;39139;53.144;6.244;2022-11-20T04:03:00;21.75;;;12.68;;
51732;SDS011;39139;53.144;6.244;2022-11-20T04:05:26;17.42;;;12.10;;
51732;SDS011;39139;53.144;6.244;2022-11-20T04:07:52;17.83;;;12.32;;
51732;SDS011;39139;53.144;6.244;2022-11-20T04:10:17;19.45;;;12.55;;
51732;SDS011;39139;53.144;6.244;2022-11-20T04:12:43;19.45;;;11.98;;
51732;SDS011;39139;53.144;6.244;2022-11-20T04:15:09;16.98;;;12.43;;
51732;SDS011;39139;53.144;6.244;2022-11-20T04:17:35;16.65;;;10.88;;
51732;SDS011;39139;53.144;6.244;2022-11-20T04:20:00;16.98;;;11.10;;
51732;SDS011;39139;53.144;6.244;2022-11-20T04:22:27;15.30;;;10.18;;
51732;SDS011;39139;53.144;6.244;2022-11-20T04:24:52;15.57;;;10.75;;
51732;SDS011;39139;53.144;6.244;2022-11-20T04:27:18;14.07;;;9.32;;
51732;SDS011;39139;53.144;6.244;2022-11-20T04:29:43;14.82;;;9.70;;
51732;SDS011;39139;53.144;6.244;2022-11-20T04:32:09;14.80;;;10.15;;
51732;SDS011;39139;53.144;6.244;2022-11-20T04:34:35;15.45;;;10.18;;
51732;SDS011;39139;53.144;6.244;2022-11-20T04:37:00;14.63;;;10.07;;
51732;SDS011;39139;53.144;6.244;2022-11-20T04:39:26;14.23;;;9.38;;
51732;SDS011;39139;53.144;6.244;2022-11-20T04:41:52;12.55;;;9.00;;
51732;SDS011;39139;53.144;6.244;2022-11-20T04:44:37;16.13;;;9.25;;
51732;SDS011;39139;53.144;6.244;2022-11-20T04:47:03;12.77;;;9.63;;
51732;SDS011;39139;53.144;6.244;2022-11-20T04:49:28;15.40;;;9.98;;
51732;SDS011;39139;53.144;6.244;2022-11-20T04:51:56;14.35;;;10.02;;
51732;SDS011;39139;53.144;6.244;2022-11-20T04:54:22;13.18;;;9.57;;
51732;SDS011;39139;53.144;6.244;2022-11-20T04:56:48;14.50;;;9.93;;
51732;SDS011;39139;53.144;6.244;2022-11-20T04:59:14;15.98;;;9.85;;
51732;SDS011;39139;53.144;6.244;2022-11-20T05:01:39;17.75;;;9.90;;
51732;SDS011;39139;53.144;6.244;2022-11-20T05:04:05;16.38;;;9.88;;
51732;SDS011;39139;53.144;6.244;2022-11-20T05:06:31;13.18;;;9.52;;
51732;SDS011;39139;53.144;6.244;2022-11-20T05:08:57;13.77;;;9.70;;
51732;SDS011;39139;53.144;6.244;2022-11-20T05:11:23;13.50;;;9.43;;
51732;SDS011;39139;53.144;6.244;2022-11-20T05:13:49;14.00;;;9.15;;
51732;SDS011;39139;53.144;6.244;2022-11-20T05:16:16;14.77;;;9.27;;
51732;SDS011;39139;53.144;6.244;2022-11-20T05:18:43;16.60;;;9.45;;
51732;SDS011;39139;53.144;6.244;2022-11-20T05:21:10;15.75;;;10.75;;
51732;SDS011;39139;53.144;6.244;2022-11-20T05:23:36;15.57;;;9.48;;
51732;SDS011;39139;53.144;6.244;2022-11-20T05:26:02;17.38;;;10.48;;
51732;SDS011;39139;53.144;6.244;2022-11-20T05:28:29;13.23;;;9.43;;
51732;SDS011;39139;53.144;6.244;2022-11-20T05:30:55;13.57;;;9.18;;
51732;SDS011;39139;53.144;6.244;2022-11-20T05:33:21;15.27;;;10.55;;
51732;SDS011;39139;53.144;6.244;2022-11-20T05:35:47;14.25;;;10.07;;
51732;SDS011;39139;53.144;6.244;2022-11-20T05:38:13;13.85;;;9.65;;
51732;SDS011;39139;53.144;6.244;2022-11-20T05:40:39;13.23;;;9.05;;
51732;SDS011;39139;53.144;6.244;2022-11-20T05:43:05;16.05;;;10.93;;
51732;SDS011;39139;53.144;6.244;2022-11-20T05:45:30;13.68;;;9.10;;
51732;SDS011;39139;53.144;6.244;2022-11-20T05:47:59;12.27;;;9.18;;
51732;SDS011;39139;53.144;6.244;2022-11-20T05:50:26;14.75;;;10.00;;
51732;SDS011;39139;53.144;6.244;2022-11-20T05:52:52;15.40;;;9.73;;
51732;SDS011;39139;53.144;6.244;2022-11-20T05:55:18;16.60;;;10.50;;
51732;SDS011;39139;53.144;6.244;2022-11-20T05:57:44;13.32;;;9.20;;
51732;SDS011;39139;53.144;6.244;2022-11-20T06:00:09;15.48;;;10.18;;
51732;SDS011;39139;53.144;6.244;2022-11-20T06:02:36;13.73;;;9.57;;
51732;SDS011;39139;53.144;6.244;2022-11-20T06:05:01;15.18;;;9.95;;
51732;SDS011;39139;53.144;6.244;2022-11-20T06:07:27;16.48;;;10.00;;
51732;SDS011;39139;53.144;6.244;2022-11-20T06:09:53;14.20;;;9.73;;
51732;SDS011;39139;53.144;6.244;2022-11-20T06:12:18;15.25;;;10.02;;
51732;SDS011;39139;53.144;6.244;2022-11-20T06:14:44;15.23;;;10.27;;
51732;SDS011;39139;53.144;6.244;2022-11-20T06:17:09;13.93;;;10.27;;
51732;SDS011;39139;53.144;6.244;2022-11-20T06:19:35;14.70;;;10.00;;
51732;SDS011;39139;53.144;6.244;2022-11-20T06:22:01;16.30;;;10.85;;
51732;SDS011;39139;53.144;6.244;2022-11-20T06:24:26;14.68;;;9.90;;
51732;SDS011;39139;53.144;6.244;2022-11-20T06:26:52;16.80;;;9.95;;
51732;SDS011;39139;53.144;6.244;2022-11-20T06:29:17;13.77;;;9.65;;
51732;SDS011;39139;53.144;6.244;2022-11-20T06:31:43;14.50;;;10.30;;
51732;SDS011;39139;53.144;6.244;2022-11-20T06:34:09;14.32;;;9.82;;
51732;SDS011;39139;53.144;6.244;2022-11-20T06:36:36;14.90;;;10.52;;
51732;SDS011;39139;53.144;6.244;2022-11-20T06:39:02;14.73;;;10.15;;
51732;SDS011;39139;53.144;6.244;2022-11-20T06:41:28;15.80;;;11.00;;
51732;SDS011;39139;53.144;6.244;2022-11-20T06:43:53;16.25;;;10.57;;
51732;SDS011;39139;53.144;6.244;2022-11-20T06:46:19;15.32;;;10.55;;
51732;SDS011;39139;53.144;6.244;2022-11-20T06:48:45;16.35;;;10.30;;
51732;SDS011;39139;53.144;6.244;2022-11-20T06:51:12;17.70;;;11.38;;
51732;SDS011;39139;53.144;6.244;2022-11-20T06:53:38;16.92;;;10.48;;
51732;SDS011;39139;53.144;6.244;2022-11-20T06:56:04;13.77;;;10.10;;
51732;SDS011;39139;53.144;6.244;2022-11-20T06:58:31;15.95;;;11.18;;
51732;SDS011;39139;53.144;6.244;2022-11-20T07:01:02;16.20;;;10.43;;
51732;SDS011;39139;53.144;6.244;2022-11-20T07:03:33;17.95;;;11.40;;
51732;SDS011;39139;53.144;6.244;2022-11-20T07:05:59;16.02;;;11.55;;
51732;SDS011;39139;53.144;6.244;2022-11-20T07:08:25;18.08;;;10.82;;
51732;SDS011;39139;53.144;6.244;2022-11-20T07:10:51;15.98;;;11.13;;
51732;SDS011;39139;53.144;6.244;2022-11-20T07:13:17;15.98;;;10.98;;
51732;SDS011;39139;53.144;6.244;2022-11-20T07:15:43;15.35;;;10.95;;
51732;SDS011;39139;53.144;6.244;2022-11-20T07:18:09;19.63;;;11.98;;
51732;SDS011;39139;53.144;6.244;2022-11-20T07:20:34;14.30;;;10.10;;
51732;SDS011;39139;53.144;6.244;2022-11-20T07:23:00;16.48;;;11.20;;
51732;SDS011;39139;53.144;6.244;2022-11-20T07:25:26;15.15;;;10.70;;
51732;SDS011;39139;53.144;6.244;2022-11-20T07:27:52;16.50;;;10.50;;
51732;SDS011;39139;53.144;6.244;2022-11-20T07:30:21;18.27;;;11.03;;
51732;SDS011;39139;53.144;6.244;2022-11-20T07:32:47;18.42;;;11.90;;
51732;SDS011;39139;53.144;6.244;2022-11-20T07:35:16;21.50;;;12.73;;
51732;SDS011;39139;53.144;6.244;2022-11-20T07:37:41;14.35;;;10.57;;
51732;SDS011;39139;53.144;6.244;2022-11-20T07:40:07;15.48;;;11.52;;
51732;SDS011;39139;53.144;6.244;2022-11-20T07:42:33;16.50;;;11.48;;
51732;SDS011;39139;53.144;6.244;2022-11-20T07:44:59;16.60;;;11.20;;
51732;SDS011;39139;53.144;6.244;2022-11-20T07:47:24;18.70;;;11.40;;
51732;SDS011;39139;53.144;6.244;2022-11-20T07:49:50;18.60;;;11.40;;
51732;SDS011;39139;53.144;6.244;2022-11-20T07:52:15;17.88;;;11.68;;
51732;SDS011;39139;53.144;6.244;2022-11-20T07:54:41;18.20;;;11.15;;
51732;SDS011;39139;53.144;6.244;2022-11-20T07:57:07;17.17;;;11.32;;
51732;SDS011;39139;53.144;6.244;2022-11-20T07:59:32;14.07;;;10.40;;
51732;SDS011;39139;53.144;6.244;2022-11-20T08:02:01;14.77;;;10.32;;
51732;SDS011;39139;53.144;6.244;2022-11-20T08:04:26;16.73;;;11.80;;
51732;SDS011;39139;53.144;6.244;2022-11-20T08:06:52;15.60;;;10.98;;
51732;SDS011;39139;53.144;6.244;2022-11-20T08:09:18;16.60;;;11.48;;
51732;SDS011;39139;53.144;6.244;2022-11-20T08:11:43;16.55;;;11.25;;
51732;SDS011;39139;53.144;6.244;2022-11-20T08:14:28;19.60;;;12.23;;
51732;SDS011;39139;53.144;6.244;2022-11-20T08:16:53;21.55;;;12.60;;
51732;SDS011;39139;53.144;6.244;2022-11-20T08:19:19;17.10;;;11.98;;
51732;SDS011;39139;53.144;6.244;2022-11-20T08:21:44;17.58;;;12.15;;
51732;SDS011;39139;53.144;6.244;2022-11-20T08:24:11;17.15;;;12.18;;
51732;SDS011;39139;53.144;6.244;2022-11-20T08:26:37;17.52;;;11.95;;
51732;SDS011;39139;53.144;6.244;2022-11-20T08:29:04;19.23;;;11.65;;
51732;SDS011;39139;53.144;6.244;2022-11-20T08:31:30;18.15;;;11.50;;
51732;SDS011;39139;53.144;6.244;2022-11-20T08:33:56;15.13;;;11.27;;
51732;SDS011;39139;53.144;6.244;2022-11-20T08:36:23;15.75;;;11.52;;
51732;SDS011;39139;53.144;6.244;2022-11-20T08:38:53;15.00;;;11.27;;
51732;SDS011;39139;53.144;6.244;2022-11-20T08:41:20;17.90;;;11.90;;
51732;SDS011;39139;53.144;6.244;2022-11-20T08:43:49;19.38;;;11.75;;
51732;SDS011;39139;53.144;6.244;2022-11-20T08:46:16;16.08;;;10.02;;
51732;SDS011;39139;53.144;6.244;2022-11-20T08:48:42;20.63;;;12.63;;
51732;SDS011;39139;53.144;6.244;2022-11-20T08:51:08;15.65;;;10.20;;
51732;SDS011;39139;53.144;6.244;2022-11-20T08:53:34;15.30;;;10.48;;
51732;SDS011;39139;53.144;6.244;2022-11-20T08:56:00;15.40;;;10.00;;
51732;SDS011;39139;53.144;6.244;2022-11-20T08:58:25;15.82;;;10.60;;
51732;SDS011;39139;53.144;6.244;2022-11-20T09:00:52;18.60;;;11.63;;
51732;SDS011;39139;53.144;6.244;2022-11-20T09:03:18;15.88;;;11.18;;
51732;SDS011;39139;53.144;6.244;2022-11-20T09:05:43;16.65;;;10.15;;
51732;SDS011;39139;53.144;6.244;2022-11-20T09:08:09;14.73;;;9.55;;
51732;SDS011;39139;53.144;6.244;2022-11-20T09:10:35;13.73;;;10.00;;
51732;SDS011;39139;53.144;6.244;2022-11-20T09:13:01;15.93;;;10.15;;
51732;SDS011;39139;53.144;6.244;2022-11-20T09:15:27;15.70;;;10.50;;
51732;SDS011;39139;53.144;6.244;2022-11-20T09:17:53;17.30;;;11.27;;
51732;SDS011;39139;53.144;6.244;2022-11-20T09:20:24;13.93;;;9.93;;
51732;SDS011;39139;53.144;6.244;2022-11-20T09:22:51;14.13;;;10.02;;
51732;SDS011;39139;53.144;6.244;2022-11-20T09:25:17;15.52;;;10.23;;
51732;SDS011;39139;53.144;6.244;2022-11-20T09:27:43;14.82;;;10.93;;
51732;SDS011;39139;53.144;6.244;2022-11-20T09:30:10;16.52;;;10.68;;
51732;SDS011;39139;53.144;6.244;2022-11-20T09:32:40;15.30;;;10.88;;
51732;SDS011;39139;53.144;6.244;2022-11-20T09:35:09;15.98;;;10.45;;
51732;SDS011;39139;53.144;6.244;2022-11-20T09:37:35;13.65;;;10.20;;
51732;SDS011;39139;53.144;6.244;2022-11-20T09:40:01;14.18;;;10.20;;
51732;SDS011;39139;53.144;6.244;2022-11-20T09:42:32;14.50;;;9.85;;
51732;SDS011;39139;53.144;6.244;2022-11-20T09:50:53;14.32;;;10.02;;
51732;SDS011;39139;53.144;6.244;2022-11-20T09:56:14;13.13;;;9.40;;
51732;SDS011;39139;53.144;6.244;2022-11-20T09:58:41;13.35;;;9.90;;
51732;SDS011;39139;53.144;6.244;2022-11-20T10:01:16;11.90;;;8.95;;
51732;SDS011;39139;53.144;6.244;2022-11-20T10:04:04;13.18;;;9.27;;
51732;SDS011;39139;53.144;6.244;2022-11-20T10:06:47;12.95;;;10.10;;
51732;SDS011;39139;53.144;6.244;2022-11-20T10:09:39;13.70;;;8.82;;
51732;SDS011;39139;53.144;6.244;2022-11-20T10:12:18;13.88;;;9.40;;
51732;SDS011;39139;53.144;6.244;2022-11-20T10:20:38;11.65;;;8.88;;
51732;SDS011;39139;53.144;6.244;2022-11-20T10:29:13;11.02;;;8.50;;
51732;SDS011;39139;53.144;6.244;2022-11-20T10:31:41;8.30;;;7.32;;
51732;SDS011;39139;53.144;6.244;2022-11-20T10:36:58;8.60;;;7.70;;
51732;SDS011;39139;53.144;6.244;2022-11-20T10:42:52;8.55;;;7.25;;
51732;SDS011;39139;53.144;6.244;2022-11-20T10:47:50;9.07;;;7.22;;
51732;SDS011;39139;53.144;6.244;2022-11-20T10:50:19;9.65;;;7.63;;
51732;SDS011;39139;53.144;6.244;2022-11-20T10:52:58;10.02;;;7.78;;
51732;SDS011;39139;53.144;6.244;2022-11-20T10:55:47;8.63;;;7.03;;
51732;SDS011;39139;53.144;6.244;2022-11-20T11:01:17;8.07;;;6.85;;
51732;SDS011;39139;53.144;6.244;2022-11-20T11:03:47;13.45;;;6.78;;
51732;SDS011;39139;53.144;6.244;2022-11-20T11:08:46;7.80;;;6.68;;
51732;SDS011;39139;53.144;6.244;2022-11-20T11:11:24;9.20;;;8.05;;
51732;SDS011;39139;53.144;6.244;2022-11-20T11:13:50;9.88;;;7.70;;
51732;SDS011;39139;53.144;6.244;2022-11-20T11:16:20;8.38;;;7.53;;
51732;SDS011;39139;53.144;6.244;2022-11-20T11:18:50;8.13;;;7.20;;
51732;SDS011;39139;53.144;6.244;2022-11-20T11:21:21;7.00;;;6.30;;
51732;SDS011;39139;53.144;6.244;2022-11-20T11:24:01;9.15;;;6.25;;
51732;SDS011;39139;53.144;6.244;2022-11-20T11:26:28;6.25;;;5.43;;
51732;SDS011;39139;53.144;6.244;2022-11-20T11:28:58;6.93;;;5.03;;
51732;SDS011;39139;53.144;6.244;2022-11-20T11:31:27;5.45;;;4.95;;
51732;SDS011;39139;53.144;6.244;2022-11-20T11:34:04;6.03;;;4.57;;
51732;SDS011;39139;53.144;6.244;2022-11-20T11:36:31;5.68;;;5.07;;
51732;SDS011;39139;53.144;6.244;2022-11-20T11:38:59;6.85;;;5.75;;
51732;SDS011;39139;53.144;6.244;2022-11-20T11:41:28;8.30;;;4.47;;
51732;SDS011;39139;53.144;6.244;2022-11-20T11:43:58;6.22;;;4.50;;
51732;SDS011;39139;53.144;6.244;2022-11-20T11:46:54;6.38;;;4.70;;
51732;SDS011;39139;53.144;6.244;2022-11-20T11:49:21;6.10;;;4.82;;
51732;SDS011;39139;53.144;6.244;2022-11-20T11:51:52;6.30;;;5.15;;
51732;SDS011;39139;53.144;6.244;2022-11-20T11:54:58;5.47;;;4.65;;
51732;SDS011;39139;53.144;6.244;2022-11-20T11:57:29;6.15;;;5.05;;
51732;SDS011;39139;53.144;6.244;2022-11-20T12:10:17;6.15;;;4.90;;
51732;SDS011;39139;53.144;6.244;2022-11-20T12:12:54;8.88;;;5.68;;
51732;SDS011;39139;53.144;6.244;2022-11-20T12:15:27;7.07;;;5.65;;
51732;SDS011;39139;53.144;6.244;2022-11-20T12:20:22;6.53;;;5.28;;
51732;SDS011;39139;53.144;6.244;2022-11-20T12:22:56;5.72;;;5.13;;
51732;SDS011;39139;53.144;6.244;2022-11-20T12:31:23;5.00;;;4.45;;
51732;SDS011;39139;53.144;6.244;2022-11-20T12:34:02;6.43;;;4.00;;
51732;SDS011;39139;53.144;6.244;2022-11-20T12:36:37;4.68;;;4.13;;
51732;SDS011;39139;53.144;6.244;2022-11-20T12:53:05;6.55;;;4.90;;
51732;SDS011;39139;53.144;6.244;2022-11-20T13:04:21;6.40;;;4.43;;
51732;SDS011;39139;53.144;6.244;2022-11-20T13:06:52;5.38;;;4.72;;
51732;SDS011;39139;53.144;6.244;2022-11-20T13:09:19;5.15;;;4.35;;
51732;SDS011;39139;53.144;6.244;2022-11-20T13:11:49;6.28;;;4.82;;
51732;SDS011;39139;53.144;6.244;2022-11-20T13:14:40;6.13;;;5.15;;
51732;SDS011;39139;53.144;6.244;2022-11-20T13:17:43;6.97;;;4.70;;
51732;SDS011;39139;53.144;6.244;2022-11-20T13:20:17;4.88;;;4.25;;
51732;SDS011;39139;53.144;6.244;2022-11-20T13:22:53;6.97;;;5.28;;
51732;SDS011;39139;53.144;6.244;2022-11-20T13:25:22;4.65;;;4.07;;
51732;SDS011;39139;53.144;6.244;2022-11-20T13:27:56;5.88;;;4.60;;
51732;SDS011;39139;53.144;6.244;2022-11-20T13:30:24;6.38;;;4.45;;
51732;SDS011;39139;53.144;6.244;2022-11-20T13:32:52;5.80;;;3.78;;
51732;SDS011;39139;53.144;6.244;2022-11-20T13:35:25;4.90;;;4.27;;
51732;SDS011;39139;53.144;6.244;2022-11-20T13:40:30;5.25;;;4.70;;
51732;SDS011;39139;53.144;6.244;2022-11-20T13:45:58;8.57;;;6.35;;
51732;SDS011;39139;53.144;6.244;2022-11-20T13:48:32;11.50;;;7.65;;
51732;SDS011;39139;53.144;6.244;2022-11-20T13:51:11;12.88;;;7.30;;
51732;SDS011;39139;53.144;6.244;2022-11-20T13:54:14;12.07;;;8.25;;
51732;SDS011;39139;53.144;6.244;2022-11-20T13:59:45;17.90;;;9.45;;
51732;SDS011;39139;53.144;6.244;2022-11-20T14:02:26;19.45;;;10.13;;
51732;SDS011;39139;53.144;6.244;2022-11-20T14:04:54;13.23;;;7.22;;
51732;SDS011;39139;53.144;6.244;2022-11-20T14:07:24;10.35;;;6.78;;
51732;SDS011;39139;53.144;6.244;2022-11-20T14:09:56;9.75;;;6.35;;
51732;SDS011;39139;53.144;6.244;2022-11-20T14:12:30;7.43;;;5.32;;
51732;SDS011;39139;53.144;6.244;2022-11-20T14:14:57;9.90;;;6.32;;
51732;SDS011;39139;53.144;6.244;2022-11-20T14:17:28;8.35;;;5.78;;
51732;SDS011;39139;53.144;6.244;2022-11-20T14:20:14;6.95;;;6.13;;
51732;SDS011;39139;53.144;6.244;2022-11-20T14:22:52;8.82;;;7.25;;
51732;SDS011;39139;53.144;6.244;2022-11-20T14:25:20;7.35;;;6.13;;
51732;SDS011;39139;53.144;6.244;2022-11-20T14:27:55;12.68;;;8.07;;
51732;SDS011;39139;53.144;6.244;2022-11-20T14:30:24;12.57;;;8.20;;
51732;SDS011;39139;53.144;6.244;2022-11-20T14:33:02;12.10;;;8.00;;
51732;SDS011;39139;53.144;6.244;2022-11-20T14:35:29;12.75;;;8.48;;
51732;SDS011;39139;53.144;6.244;2022-11-20T14:38:00;9.43;;;7.00;;
51732;SDS011;39139;53.144;6.244;2022-11-20T14:40:31;10.60;;;7.57;;
51732;SDS011;39139;53.144;6.244;2022-11-20T14:43:01;9.70;;;7.10;;
51732;SDS011;39139;53.144;6.244;2022-11-20T14:45:40;9.73;;;7.35;;
51732;SDS011;39139;53.144;6.244;2022-11-20T14:48:08;13.20;;;7.90;;
51732;SDS011;39139;53.144;6.244;2022-11-20T14:50:35;8.20;;;6.15;;
51732;SDS011;39139;53.144;6.244;2022-11-20T14:53:03;8.48;;;6.75;;
51732;SDS011;39139;53.144;6.244;2022-11-20T14:55:35;10.88;;;7.72;;
51732;SDS011;39139;53.144;6.244;2022-11-20T14:58:06;10.70;;;7.53;;
51732;SDS011;39139;53.144;6.244;2022-11-20T15:01:01;7.50;;;6.05;;
51732;SDS011;39139;53.144;6.244;2022-11-20T15:03:36;8.20;;;5.93;;
51732;SDS011;39139;53.144;6.244;2022-11-20T15:06:03;8.05;;;5.88;;
51732;SDS011;39139;53.144;6.244;2022-11-20T15:08:29;10.07;;;7.00;;
51732;SDS011;39139;53.144;6.244;2022-11-20T15:10:55;12.23;;;7.18;;
51732;SDS011;39139;53.144;6.244;2022-11-20T15:13:31;8.93;;;6.93;;
51732;SDS011;39139;53.144;6.244;2022-11-20T15:16:00;9.55;;;6.45;;
51732;SDS011;39139;53.144;6.244;2022-11-20T15:18:36;10.07;;;6.68;;
51732;SDS011;39139;53.144;6.244;2022-11-20T15:21:08;8.05;;;6.68;;
51732;SDS011;39139;53.144;6.244;2022-11-20T15:23:37;10.40;;;6.47;;
51732;SDS011;39139;53.144;6.244;2022-11-20T15:26:06;9.80;;;7.47;;
51732;SDS011;39139;53.144;6.244;2022-11-20T15:28:34;9.38;;;7.05;;
51732;SDS011;39139;53.144;6.244;2022-11-20T15:31:00;9.13;;;7.45;;
51732;SDS011;39139;53.144;6.244;2022-11-20T15:33:27;8.23;;;6.18;;
51732;SDS011;39139;53.144;6.244;2022-11-20T15:35:53;8.43;;;6.47;;
51732;SDS011;39139;53.144;6.244;2022-11-20T15:38:19;9.45;;;6.32;;
51732;SDS011;39139;53.144;6.244;2022-11-20T15:40:44;8.63;;;5.90;;
51732;SDS011;39139;53.144;6.244;2022-11-20T15:43:10;9.68;;;6.57;;
51732;SDS011;39139;53.144;6.244;2022-11-20T15:45:43;8.70;;;5.88;;
51732;SDS011;39139;53.144;6.244;2022-11-20T15:48:15;9.60;;;6.68;;
51732;SDS011;39139;53.144;6.244;2022-11-20T15:50:54;12.20;;;9.00;;
51732;SDS011;39139;53.144;6.244;2022-11-20T15:53:40;12.23;;;7.70;;
51732;SDS011;39139;53.144;6.244;2022-11-20T15:56:12;8.82;;;7.10;;
51732;SDS011;39139;53.144;6.244;2022-11-20T15:58:39;11.68;;;7.75;;
51732;SDS011;39139;53.144;6.244;2022-11-20T16:01:09;11.82;;;8.00;;
51732;SDS011;39139;53.144;6.244;2022-11-20T16:03:36;16.85;;;9.40;;
51732;SDS011;39139;53.144;6.244;2022-11-20T16:06:02;11.05;;;7.72;;
51732;SDS011;39139;53.144;6.244;2022-11-20T16:08:28;11.45;;;7.50;;